Time;durP1;ratioP1;P1;durP2;ratioP2;P2;SDS_P1;SDS_P2;PMS_P1;PMS_P2;Temp;Humidity;BMP_temperature;BMP_pressure;BME280_temperature;BME280_humidity;BME280_pressure;Samples;Min_cycle;Max_cycle;Signal;HPM_P1;HPM_P2
2020/12/24 00:01:55;;;;;;;;;2.25;1.00;;;;;;;;4961534;28;9840;-79
2020/12/24 00:04:22;;;;;;;;;5.50;1.00;;;;;;;;4949224;28;9988;-79
2020/12/24 00:06:49;;;;;;;;;0.75;0.75;;;;;;;;4961509;28;9877;-83
2020/12/24 00:09:15;;;;;;;;;2.50;0.00;;;;;;;;4956557;28;9932;-86
2020/12/24 00:11:42;;;;;;;;;0.00;0.00;;;;;;;;4949442;28;10088;-84
2020/12/24 00:14:10;;;;;;;;;0.00;0.00;;;;;;;;4958264;28;9956;-84
2020/12/24 00:16:36;;;;;;;;;0.00;0.00;;;;;;;;4948911;28;9901;-88
2020/12/24 00:19:04;;;;;;;;;1.00;0.25;;;;;;;;4945958;28;9946;-89
2020/12/24 00:21:36;;;;;;;;;1.75;0.00;;;;;;;;4955778;28;9970;-89
2020/12/24 00:24:03;;;;;;;;;0.00;0.00;;;;;;;;4950801;28;10078;-90
2020/12/24 00:26:30;;;;;;;;;0.00;0.00;;;;;;;;4947224;28;10960;-90
2020/12/24 00:28:57;;;;;;;;;4.50;1.50;;;;;;;;4945272;28;10253;-88
2020/12/24 00:31:25;;;;;;;;;0.00;0.00;;;;;;;;4949681;28;10346;-88
2020/12/24 00:33:52;;;;;;;;;1.25;0.00;;;;;;;;4949917;28;10127;-90
2020/12/24 00:36:19;;;;;;;;;0.00;0.00;;;;;;;;4960686;28;10249;-90
2020/12/24 00:38:46;;;;;;;;;1.00;1.00;;;;;;;;4949450;28;10153;-89
2020/12/24 00:41:13;;;;;;;;;2.25;0.00;;;;;;;;4928549;28;10122;-89
2020/12/24 00:43:40;;;;;;;;;3.00;1.00;;;;;;;;4948536;28;10434;-89
2020/12/24 00:46:07;;;;;;;;;1.00;1.00;;;;;;;;4930436;28;10338;-89
2020/12/24 00:48:35;;;;;;;;;3.00;0.00;;;;;;;;4947385;28;10227;-89
2020/12/24 00:51:01;;;;;;;;;1.00;0.00;;;;;;;;4948281;28;10126;-87
2020/12/24 00:53:28;;;;;;;;;1.25;0.00;;;;;;;;4943481;28;10136;-88
2020/12/24 00:55:55;;;;;;;;;0.00;0.00;;;;;;;;4946594;28;10074;-90
2020/12/24 00:58:21;;;;;;;;;0.00;0.00;;;;;;;;4953252;28;10211;-88
2020/12/24 01:00:48;;;;;;;;;2.50;1.50;;;;;;;;4959830;28;10238;-85
2020/12/24 01:03:15;;;;;;;;;0.00;0.00;;;;;;;;4949372;28;10247;-86
2020/12/24 01:05:42;;;;;;;;;0.00;0.00;;;;;;;;4946877;28;11681;-87
2020/12/24 01:08:09;;;;;;;;;0.00;0.00;;;;;;;;4953080;28;10297;-84
2020/12/24 01:10:36;;;;;;;;;0.00;0.00;;;;;;;;4939305;28;10300;-83
2020/12/24 01:13:04;;;;;;;;;0.50;0.00;;;;;;;;4949132;28;10386;-88
2020/12/24 01:15:30;;;;;;;;;3.00;0.00;;;;;;;;4956404;28;10208;-89
2020/12/24 01:17:57;;;;;;;;;4.00;0.25;;;;;;;;4956109;28;10294;-89
2020/12/24 01:20:24;;;;;;;;;1.00;0.00;;;;;;;;4952113;28;10368;-85
2020/12/24 01:22:51;;;;;;;;;1.25;0.75;;;;;;;;4961014;28;10186;-87
2020/12/24 01:25:18;;;;;;;;;0.50;0.50;;;;;;;;4941621;28;10297;-88
2020/12/24 01:27:45;;;;;;;;;0.00;0.00;;;;;;;;4929942;28;10368;-87
2020/12/24 01:30:12;;;;;;;;;0.00;0.00;;;;;;;;4946924;28;10255;-83
2020/12/24 01:32:39;;;;;;;;;0.75;0.75;;;;;;;;4919816;28;10250;-89
2020/12/24 01:35:06;;;;;;;;;2.00;0.50;;;;;;;;4957146;28;10223;-87
2020/12/24 01:37:34;;;;;;;;;0.00;0.00;;;;;;;;4949414;28;11106;-87
2020/12/24 01:40:02;;;;;;;;;1.00;0.00;;;;;;;;4954990;28;10944;-86
2020/12/24 01:42:29;;;;;;;;;2.00;0.00;;;;;;;;4963379;28;10425;-87
2020/12/24 01:44:57;;;;;;;;;0.00;0.00;;;;;;;;4951668;28;10186;-87
2020/12/24 01:47:24;;;;;;;;;1.25;0.25;;;;;;;;4954009;28;10371;-87
2020/12/24 01:49:51;;;;;;;;;0.00;0.00;;;;;;;;4963513;28;10405;-83
2020/12/24 01:52:30;;;;;;;;;0.00;0.00;;;;;;;;4940429;28;10355;-88
2020/12/24 01:54:57;;;;;;;;;3.00;0.00;;;;;;;;4948566;28;10973;-89
2020/12/24 01:57:25;;;;;;;;;0.00;0.00;;;;;;;;4962006;28;10213;-91
2020/12/24 01:59:54;;;;;;;;;0.00;0.00;;;;;;;;4946338;28;10430;-87
2020/12/24 02:02:21;;;;;;;;;0.25;0.00;;;;;;;;4954013;28;10783;-89
2020/12/24 02:04:48;;;;;;;;;1.00;0.00;;;;;;;;4957578;28;10293;-87
2020/12/24 02:07:17;;;;;;;;;0.00;0.00;;;;;;;;4960182;28;10281;-88
2020/12/24 02:09:46;;;;;;;;;0.00;0.00;;;;;;;;4951225;28;10215;-87
2020/12/24 02:12:13;;;;;;;;;0.00;0.00;;;;;;;;4951348;28;10348;-88
2020/12/24 02:14:41;;;;;;;;;0.25;0.25;;;;;;;;4947606;28;10962;-87
2020/12/24 02:17:09;;;;;;;;;0.00;0.00;;;;;;;;4952775;28;10242;-86
2020/12/24 02:19:36;;;;;;;;;0.00;0.00;;;;;;;;4955793;28;10298;-88
2020/12/24 02:22:04;;;;;;;;;0.00;0.00;;;;;;;;4955870;28;10190;-88
2020/12/24 02:24:31;;;;;;;;;2.00;0.00;;;;;;;;4958937;28;10313;-88
2020/12/24 02:26:58;;;;;;;;;1.00;0.00;;;;;;;;4957048;28;10193;-88
2020/12/24 02:29:25;;;;;;;;;1.25;0.00;;;;;;;;4946279;28;10225;-90
2020/12/24 02:31:52;;;;;;;;;0.00;0.00;;;;;;;;4958169;28;10162;-89
2020/12/24 02:34:18;;;;;;;;;2.00;0.00;;;;;;;;4952591;28;10107;-90
2020/12/24 02:36:45;;;;;;;;;0.00;0.00;;;;;;;;4954229;28;10228;-89
2020/12/24 02:39:13;;;;;;;;;1.00;0.00;;;;;;;;4948505;28;10118;-89
2020/12/24 02:41:40;;;;;;;;;1.00;0.00;;;;;;;;4949001;28;10226;-90
2020/12/24 02:44:07;;;;;;;;;0.00;0.00;;;;;;;;4956849;28;10165;-90
2020/12/24 02:46:33;;;;;;;;;1.00;0.00;;;;;;;;4955169;28;10142;-91
2020/12/24 02:49:00;;;;;;;;;0.00;0.00;;;;;;;;4961541;28;10268;-89
2020/12/24 02:51:27;;;;;;;;;0.00;0.00;;;;;;;;4960897;28;10219;-90
2020/12/24 02:53:53;;;;;;;;;1.00;0.00;;;;;;;;4951685;28;10193;-90
2020/12/24 02:56:21;;;;;;;;;0.50;0.00;;;;;;;;4955968;28;10197;-85
2020/12/24 02:58:47;;;;;;;;;0.00;0.00;;;;;;;;4953685;28;10312;-87
2020/12/24 03:01:14;;;;;;;;;0.00;0.00;;;;;;;;4953212;28;10107;-80
2020/12/24 03:03:41;;;;;;;;;0.00;0.00;;;;;;;;4951808;28;10358;-82
2020/12/24 03:06:07;;;;;;;;;0.00;0.00;;;;;;;;4958128;28;10282;-77
2020/12/24 03:08:34;;;;;;;;;2.00;0.25;;;;;;;;4953398;28;10211;-90
2020/12/24 03:11:01;;;;;;;;;0.00;0.00;;;;;;;;4947293;28;10208;-87
2020/12/24 03:13:28;;;;;;;;;0.00;0.00;;;;;;;;4953232;28;10084;-90
2020/12/24 03:15:55;;;;;;;;;0.00;0.00;;;;;;;;4946798;28;10192;-84
2020/12/24 03:18:22;;;;;;;;;0.00;0.00;;;;;;;;4955517;28;10134;-91
2020/12/24 03:20:48;;;;;;;;;0.00;0.00;;;;;;;;4955897;28;10191;-91
2020/12/24 03:23:15;;;;;;;;;0.00;0.00;;;;;;;;4959644;28;10277;-92
2020/12/24 03:25:42;;;;;;;;;0.00;0.00;;;;;;;;4949466;28;10169;-91
2020/12/24 03:28:09;;;;;;;;;0.00;0.00;;;;;;;;4958823;28;10196;-89
2020/12/24 03:30:36;;;;;;;;;0.50;0.00;;;;;;;;4954731;28;10062;-88
2020/12/24 03:33:03;;;;;;;;;0.00;0.00;;;;;;;;4952396;28;10351;-89
2020/12/24 03:35:30;;;;;;;;;0.00;0.00;;;;;;;;4944649;28;10141;-88
2020/12/24 03:37:57;;;;;;;;;0.00;0.00;;;;;;;;4949804;28;10281;-88
2020/12/24 03:40:24;;;;;;;;;0.00;0.00;;;;;;;;4955367;28;10188;-85
2020/12/24 03:42:50;;;;;;;;;0.00;0.00;;;;;;;;4947396;28;10070;-87
2020/12/24 03:45:20;;;;;;;;;0.00;0.00;;;;;;;;4952900;28;10154;-87
2020/12/24 03:47:48;;;;;;;;;0.00;0.00;;;;;;;;4965942;28;10184;-87
2020/12/24 03:50:15;;;;;;;;;0.00;0.00;;;;;;;;4941469;28;10086;-87
2020/12/24 03:52:41;;;;;;;;;0.00;0.00;;;;;;;;4959199;28;10124;-90
2020/12/24 03:55:08;;;;;;;;;0.00;0.00;;;;;;;;4952111;28;10396;-88
2020/12/24 03:57:35;;;;;;;;;0.00;0.00;;;;;;;;4950967;28;10274;-86
2020/12/24 04:00:02;;;;;;;;;0.00;0.00;;;;;;;;4956956;28;10043;-87
2020/12/24 04:02:29;;;;;;;;;1.00;0.00;;;;;;;;4941376;28;10055;-86
2020/12/24 04:04:57;;;;;;;;;3.50;3.50;;;;;;;;4933266;28;10287;-87
2020/12/24 04:07:23;;;;;;;;;6.00;6.00;;;;;;;;4955193;28;10418;-84
2020/12/24 04:09:50;;;;;;;;;7.00;7.00;;;;;;;;4953767;28;10683;-89
2020/12/24 04:12:17;;;;;;;;;20.00;20.00;;;;;;;;4949274;28;10727;-86
2020/12/24 04:14:44;;;;;;;;;14.00;12.00;;;;;;;;4935537;28;11136;-90
2020/12/24 04:17:11;;;;;;;;;4.50;4.50;;;;;;;;4963819;28;10920;-91
2020/12/24 04:19:38;;;;;;;;;5.50;5.50;;;;;;;;4973593;28;10502;-90
2020/12/24 04:22:05;;;;;;;;;6.50;5.00;;;;;;;;4980206;28;10603;-85
2020/12/24 04:24:32;;;;;;;;;8.00;8.00;;;;;;;;4970341;28;10510;-83
2020/12/24 04:27:00;;;;;;;;;5.00;5.00;;;;;;;;4969866;28;10763;-87
2020/12/24 04:29:27;;;;;;;;;1.00;1.00;;;;;;;;4980058;28;10675;-86
2020/12/24 04:31:53;;;;;;;;;2.00;1.00;;;;;;;;4966400;28;10464;-88
2020/12/24 04:34:20;;;;;;;;;0.00;0.00;;;;;;;;4961177;28;10425;-85
2020/12/24 04:36:50;;;;;;;;;0.00;0.00;;;;;;;;4965871;28;10345;-90
2020/12/24 04:39:19;;;;;;;;;0.00;0.00;;;;;;;;4979126;28;10295;-90
2020/12/24 04:41:47;;;;;;;;;0.00;0.00;;;;;;;;4966653;28;10400;-89
2020/12/24 04:44:15;;;;;;;;;0.00;0.00;;;;;;;;4972013;28;11108;-90
2020/12/24 04:46:43;;;;;;;;;1.00;0.00;;;;;;;;4973032;28;10345;-89
2020/12/24 04:49:11;;;;;;;;;0.00;0.00;;;;;;;;4983785;28;10235;-87
2020/12/24 04:51:38;;;;;;;;;0.00;0.00;;;;;;;;4973807;28;10353;-89
2020/12/24 04:54:04;;;;;;;;;0.00;0.00;;;;;;;;4967224;28;10346;-85
2020/12/24 04:56:32;;;;;;;;;0.00;0.00;;;;;;;;4966712;28;10370;-82
2020/12/24 04:59:00;;;;;;;;;0.00;0.00;;;;;;;;4977127;28;10432;-86
2020/12/24 05:01:27;;;;;;;;;0.00;0.00;;;;;;;;4986419;28;10460;-88
2020/12/24 05:03:55;;;;;;;;;0.00;0.00;;;;;;;;4976594;28;10499;-86
2020/12/24 05:06:22;;;;;;;;;0.00;0.00;;;;;;;;4975997;28;10477;-87
2020/12/24 05:08:51;;;;;;;;;0.00;0.00;;;;;;;;4985532;28;10545;-89
2020/12/24 05:11:25;;;;;;;;;0.00;0.00;;;;;;;;4979362;28;10655;-85
2020/12/24 05:13:53;;;;;;;;;0.00;0.00;;;;;;;;4986968;28;10600;-91
2020/12/24 05:16:20;;;;;;;;;0.00;0.00;;;;;;;;4975580;28;10686;-85
2020/12/24 05:18:47;;;;;;;;;0.00;0.00;;;;;;;;4974289;28;11283;-89
2020/12/24 05:21:30;;;;;;;;;0.00;0.00;;;;;;;;4988402;28;10481;-90
2020/12/24 05:23:57;;;;;;;;;0.00;0.00;;;;;;;;4972132;28;10432;-87
2020/12/24 05:26:24;;;;;;;;;0.00;0.00;;;;;;;;4978891;28;10702;-89
2020/12/24 05:28:51;;;;;;;;;0.00;0.00;;;;;;;;4978567;28;10494;-88
2020/12/24 05:31:34;;;;;;;;;0.75;0.00;;;;;;;;4978503;28;11403;-89
2020/12/24 05:34:01;;;;;;;;;0.00;0.00;;;;;;;;4962740;28;10587;-87
2020/12/24 05:36:28;;;;;;;;;2.00;2.00;;;;;;;;4987463;28;10653;-84
2020/12/24 05:38:55;;;;;;;;;11.75;11.75;;;;;;;;4985680;28;10795;-91
2020/12/24 05:41:30;;;;;;;;;18.00;18.00;;;;;;;;4985984;28;11233;-82
2020/12/24 05:43:59;;;;;;;;;13.75;13.75;;;;;;;;4986879;28;11263;-87
2020/12/24 05:46:28;;;;;;;;;7.00;5.25;;;;;;;;4983896;28;11155;-79
2020/12/24 05:48:56;;;;;;;;;5.00;2.00;;;;;;;;4987264;28;10874;-85
2020/12/24 05:51:23;;;;;;;;;2.00;2.00;;;;;;;;4983000;28;10654;-88
2020/12/24 05:53:50;;;;;;;;;2.00;2.00;;;;;;;;4978582;28;10547;-88
2020/12/24 05:56:21;;;;;;;;;3.75;2.00;;;;;;;;4996802;28;11431;-89
2020/12/24 05:58:49;;;;;;;;;0.00;0.00;;;;;;;;4988339;28;10538;-87
2020/12/24 06:01:17;;;;;;;;;0.00;0.00;;;;;;;;4968827;28;11185;-90
2020/12/24 06:04:10;;;;;;;;;0.00;0.00;;;;;;;;4987945;28;10379;-87
2020/12/24 06:06:45;;;;;;;;;0.00;0.00;;;;;;;;4952523;28;10377;-84
2020/12/24 06:09:16;;;;;;;;;0.00;0.00;;;;;;;;4984540;28;10370;-86
2020/12/24 06:11:51;;;;;;;;;0.00;0.00;;;;;;;;4958244;28;10508;-86
2020/12/24 06:14:32;;;;;;;;;0.00;0.00;;;;;;;;4986161;28;11307;-85
2020/12/24 06:17:07;;;;;;;;;0.00;0.00;;;;;;;;4964957;28;11433;-73
2020/12/24 06:19:38;;;;;;;;;0.50;0.00;;;;;;;;4960581;28;10679;-71
2020/12/24 06:22:06;;;;;;;;;0.00;0.00;;;;;;;;4956745;28;10623;-75
2020/12/24 06:24:33;;;;;;;;;2.00;0.00;;;;;;;;4953578;28;10710;-74
2020/12/24 06:27:04;;;;;;;;;0.50;0.50;;;;;;;;4957728;28;10806;-73
2020/12/24 06:29:35;;;;;;;;;0.25;0.25;;;;;;;;4945775;28;10813;-74
2020/12/24 06:32:02;;;;;;;;;1.25;0.75;;;;;;;;4973255;28;10754;-73
2020/12/24 06:34:31;;;;;;;;;0.75;0.75;;;;;;;;4975580;28;10800;-74
2020/12/24 06:37:11;;;;;;;;;2.50;2.50;;;;;;;;4973961;28;10838;-74
2020/12/24 06:39:39;;;;;;;;;5.25;2.00;;;;;;;;4971900;28;10972;-74
2020/12/24 06:42:07;;;;;;;;;4.50;4.50;;;;;;;;4973806;28;11011;-71
2020/12/24 06:44:47;;;;;;;;;6.00;6.00;;;;;;;;4976684;28;11247;-72
2020/12/24 06:47:16;;;;;;;;;12.00;10.75;;;;;;;;4970981;28;11558;-73
2020/12/24 06:49:44;;;;;;;;;10.00;8.00;;;;;;;;4978791;28;12268;-73
2020/12/24 06:52:12;;;;;;;;;3.50;3.00;;;;;;;;4984980;28;12303;-73
2020/12/24 06:54:39;;;;;;;;;0.50;0.50;;;;;;;;4964986;28;11235;-73
2020/12/24 06:57:23;;;;;;;;;0.00;0.00;;;;;;;;4984517;28;10874;-73
2020/12/24 07:00:18;;;;;;;;;5.00;0.25;;;;;;;;4951310;28;10892;-74
2020/12/24 07:02:45;;;;;;;;;2.50;1.00;;;;;;;;4965782;28;11131;-73
2020/12/24 07:05:45;;;;;;;;;1.00;1.00;;;;;;;;4976781;28;10898;-74
2020/12/24 07:08:37;;;;;;;;;0.00;0.00;;;;;;;;4975366;28;10781;-73
2020/12/24 07:11:05;;;;;;;;;1.50;1.00;;;;;;;;4972480;28;10804;-73
2020/12/24 07:13:33;;;;;;;;;2.00;2.00;;;;;;;;4983623;28;10929;-73
2020/12/24 07:16:00;;;;;;;;;1.75;1.75;;;;;;;;4978667;28;10867;-74
2020/12/24 07:18:28;;;;;;;;;2.50;2.00;;;;;;;;4955379;28;11017;-73
2020/12/24 07:20:56;;;;;;;;;2.25;1.00;;;;;;;;4980393;28;10957;-72
2020/12/24 07:23:29;;;;;;;;;0.25;0.25;;;;;;;;4972845;28;10957;-74
2020/12/24 07:25:58;;;;;;;;;0.25;0.25;;;;;;;;4978560;28;10869;-73
2020/12/24 07:28:29;;;;;;;;;1.00;1.00;;;;;;;;4976488;28;10774;-72
2020/12/24 07:30:57;;;;;;;;;1.00;1.00;;;;;;;;4972953;28;10851;-72
2020/12/24 07:33:24;;;;;;;;;1.00;1.00;;;;;;;;4962080;28;11623;-73
2020/12/24 07:35:52;;;;;;;;;1.00;1.00;;;;;;;;4974607;28;11570;-73
2020/12/24 07:38:20;;;;;;;;;0.75;0.75;;;;;;;;4966527;28;10811;-73
2020/12/24 07:40:47;;;;;;;;;0.50;0.50;;;;;;;;4983331;28;10786;-73
2020/12/24 07:43:15;;;;;;;;;1.00;0.00;;;;;;;;4973366;28;10676;-72
2020/12/24 07:45:42;;;;;;;;;3.00;1.75;;;;;;;;4965956;28;10603;-73
2020/12/24 07:48:17;;;;;;;;;2.00;2.00;;;;;;;;4984781;28;10701;-72
2020/12/24 07:50:45;;;;;;;;;0.50;0.50;;;;;;;;4971862;28;10788;-72
2020/12/24 07:53:16;;;;;;;;;0.25;0.25;;;;;;;;4973275;28;10743;-73
2020/12/24 07:55:44;;;;;;;;;2.00;0.25;;;;;;;;4970980;28;10717;-74
2020/12/24 07:58:12;;;;;;;;;0.00;0.00;;;;;;;;4973851;28;10669;-74
2020/12/24 08:00:41;;;;;;;;;1.50;0.00;;;;;;;;4952878;28;10586;-73
2020/12/24 08:03:08;;;;;;;;;0.00;0.00;;;;;;;;4947294;28;10632;-75
2020/12/24 08:05:35;;;;;;;;;0.00;0.00;;;;;;;;4955731;28;10588;-74
2020/12/24 08:08:02;;;;;;;;;0.00;0.00;;;;;;;;4948166;28;10620;-73
2020/12/24 08:10:29;;;;;;;;;3.00;0.00;;;;;;;;4946560;28;10662;-71
2020/12/24 08:13:04;;;;;;;;;0.00;0.00;;;;;;;;4957790;28;10704;-74
2020/12/24 08:15:33;;;;;;;;;0.00;0.00;;;;;;;;4950757;28;10642;-72
2020/12/24 08:18:02;;;;;;;;;0.75;0.00;;;;;;;;4960684;28;10649;-73
2020/12/24 08:20:34;;;;;;;;;0.00;0.00;;;;;;;;4971633;28;10550;-74
2020/12/24 08:23:10;;;;;;;;;0.00;0.00;;;;;;;;4974979;28;10633;-73
2020/12/24 08:25:37;;;;;;;;;1.00;0.00;;;;;;;;4974361;28;10692;-74
2020/12/24 08:28:06;;;;;;;;;2.00;0.75;;;;;;;;4963334;28;10763;-74
2020/12/24 08:30:33;;;;;;;;;0.00;0.00;;;;;;;;4966195;28;10796;-73
2020/12/24 08:33:00;;;;;;;;;0.00;0.00;;;;;;;;4963570;28;10640;-74
2020/12/24 08:35:30;;;;;;;;;0.00;0.00;;;;;;;;4969535;28;10545;-74
2020/12/24 08:38:10;;;;;;;;;0.00;0.00;;;;;;;;4965716;28;11429;-74
2020/12/24 08:40:37;;;;;;;;;1.00;0.00;;;;;;;;4975355;28;10686;-73
2020/12/24 08:43:07;;;;;;;;;0.75;0.75;;;;;;;;4967003;28;10649;-73
2020/12/24 08:45:41;;;;;;;;;0.00;0.00;;;;;;;;4972927;28;10688;-73
2020/12/24 08:48:08;;;;;;;;;0.00;0.00;;;;;;;;4983072;28;10695;-73
2020/12/24 08:50:36;;;;;;;;;0.00;0.00;;;;;;;;4967823;28;11576;-74
2020/12/24 08:53:05;;;;;;;;;0.00;0.00;;;;;;;;4952661;28;11242;-72
2020/12/24 08:55:32;;;;;;;;;0.00;0.00;;;;;;;;4971544;28;10749;-74
2020/12/24 08:57:59;;;;;;;;;0.00;0.00;;;;;;;;4967907;28;10569;-73
2020/12/24 09:00:27;;;;;;;;;0.00;0.00;;;;;;;;4969662;28;10540;-72
2020/12/24 09:02:54;;;;;;;;;0.00;0.00;;;;;;;;4959453;28;10652;-73
2020/12/24 09:05:25;;;;;;;;;1.75;0.00;;;;;;;;4961300;28;10635;-74
2020/12/24 09:07:52;;;;;;;;;0.75;0.75;;;;;;;;4965471;28;10776;-74
2020/12/24 09:10:27;;;;;;;;;0.00;0.00;;;;;;;;4984824;28;10637;-73
2020/12/24 09:12:58;;;;;;;;;0.00;0.00;;;;;;;;4983880;28;10704;-74
2020/12/24 09:15:28;;;;;;;;;1.75;1.75;;;;;;;;4967944;28;10662;-73
2020/12/24 09:17:56;;;;;;;;;1.00;1.00;;;;;;;;4968147;28;10689;-74
2020/12/24 09:20:24;;;;;;;;;3.00;3.00;;;;;;;;4970344;28;10653;-74
2020/12/24 09:22:52;;;;;;;;;0.00;0.00;;;;;;;;4980328;28;10797;-74
2020/12/24 09:25:29;;;;;;;;;1.50;0.75;;;;;;;;4965905;28;10567;-74
2020/12/24 09:27:56;;;;;;;;;0.00;0.00;;;;;;;;4979519;28;10640;-74
2020/12/24 09:30:24;;;;;;;;;0.00;0.00;;;;;;;;4975737;28;10392;-74
2020/12/24 09:33:00;;;;;;;;;0.00;0.00;;;;;;;;4973813;28;10502;-73
2020/12/24 09:35:28;;;;;;;;;0.00;0.00;;;;;;;;4965938;28;10484;-74
2020/12/24 09:37:55;;;;;;;;;0.00;0.00;;;;;;;;4979202;28;10671;-73
2020/12/24 09:40:22;;;;;;;;;0.00;0.00;;;;;;;;4966742;28;10484;-74
2020/12/24 09:42:50;;;;;;;;;0.00;0.00;;;;;;;;4960334;28;10406;-74
2020/12/24 09:45:17;;;;;;;;;0.00;0.00;;;;;;;;4972622;28;10481;-74
2020/12/24 09:47:45;;;;;;;;;0.00;0.00;;;;;;;;4969187;28;10319;-74
2020/12/24 09:50:13;;;;;;;;;1.00;0.00;;;;;;;;4974344;28;11050;-73
2020/12/24 09:52:40;;;;;;;;;0.00;0.00;;;;;;;;4983171;28;10355;-72
2020/12/24 09:55:08;;;;;;;;;0.00;0.00;;;;;;;;4979149;28;10358;-74
2020/12/24 09:57:36;;;;;;;;;2.50;0.00;;;;;;;;4983627;28;10348;-71
2020/12/24 10:00:04;;;;;;;;;0.75;0.75;;;;;;;;4978839;28;10263;-73
2020/12/24 10:02:31;;;;;;;;;0.00;0.00;;;;;;;;4961019;28;11052;-73
2020/12/24 10:04:57;;;;;;;;;0.00;0.00;;;;;;;;4978041;28;10332;-72
2020/12/24 10:07:25;;;;;;;;;1.00;0.00;;;;;;;;4973946;28;10262;-73
2020/12/24 10:09:53;;;;;;;;;0.00;0.00;;;;;;;;4977237;28;10341;-72
2020/12/24 10:12:20;;;;;;;;;0.00;0.00;;;;;;;;4985610;28;11921;-73
2020/12/24 10:14:47;;;;;;;;;0.00;0.00;;;;;;;;4962109;28;11080;-73
2020/12/24 10:17:15;;;;;;;;;0.00;0.00;;;;;;;;4974409;28;11107;-73
2020/12/24 10:19:43;;;;;;;;;0.00;0.00;;;;;;;;4963066;28;10518;-72
2020/12/24 10:22:10;;;;;;;;;0.00;0.00;;;;;;;;4964399;28;10194;-73
2020/12/24 10:24:40;;;;;;;;;0.00;0.00;;;;;;;;4962473;28;10335;-72
2020/12/24 10:27:07;;;;;;;;;0.25;0.25;;;;;;;;4961768;28;11180;-71
2020/12/24 10:29:33;;;;;;;;;0.00;0.00;;;;;;;;4964661;28;10370;-72
2020/12/24 10:32:00;;;;;;;;;1.00;0.00;;;;;;;;4966437;28;10346;-72
2020/12/24 10:34:27;;;;;;;;;0.00;0.00;;;;;;;;4954789;28;10426;-72
2020/12/24 10:36:55;;;;;;;;;0.00;0.00;;;;;;;;4966466;28;10440;-71
2020/12/24 10:39:22;;;;;;;;;2.00;0.00;;;;;;;;4955327;28;10295;-73
2020/12/24 10:41:50;;;;;;;;;2.00;2.00;;;;;;;;4957037;28;11104;-73
2020/12/24 10:44:18;;;;;;;;;0.50;0.50;;;;;;;;4965194;28;10641;-71
2020/12/24 10:46:45;;;;;;;;;0.00;0.00;;;;;;;;4960196;28;10711;-74
2020/12/24 10:49:12;;;;;;;;;1.00;1.00;;;;;;;;4963252;28;10418;-74
2020/12/24 10:51:39;;;;;;;;;1.00;1.00;;;;;;;;4953312;28;10491;-73
2020/12/24 10:54:06;;;;;;;;;3.00;2.25;;;;;;;;4959440;28;10566;-73
2020/12/24 10:56:33;;;;;;;;;3.00;3.00;;;;;;;;4959717;28;11617;-73
2020/12/24 10:59:01;;;;;;;;;1.00;1.00;;;;;;;;4965340;28;11512;-74
2020/12/24 11:01:28;;;;;;;;;1.50;1.50;;;;;;;;4962632;28;10628;-72
2020/12/24 11:03:54;;;;;;;;;2.00;2.00;;;;;;;;4946188;28;10570;-73
2020/12/24 11:06:22;;;;;;;;;1.75;1.75;;;;;;;;4951114;28;10664;-73
2020/12/24 11:08:51;;;;;;;;;0.00;0.00;;;;;;;;4964522;28;10830;-74
2020/12/24 11:11:18;;;;;;;;;1.00;1.00;;;;;;;;4961565;28;10644;-74
2020/12/24 11:13:46;;;;;;;;;1.00;1.00;;;;;;;;4950068;28;10662;-73
2020/12/24 11:16:21;;;;;;;;;1.00;1.00;;;;;;;;4950197;28;10805;-74
2020/12/24 11:18:50;;;;;;;;;0.00;0.00;;;;;;;;4947274;28;10631;-72
2020/12/24 11:21:17;;;;;;;;;1.00;1.00;;;;;;;;4953478;28;10828;-73
2020/12/24 11:23:44;;;;;;;;;2.00;2.00;;;;;;;;4964936;28;11501;-73
2020/12/24 11:26:11;;;;;;;;;1.50;1.50;;;;;;;;4960523;28;10983;-74
2020/12/24 11:28:38;;;;;;;;;0.25;0.25;;;;;;;;4955166;28;10759;-73
2020/12/24 11:31:05;;;;;;;;;5.00;2.00;;;;;;;;4953006;28;10598;-73
2020/12/24 11:33:33;;;;;;;;;2.00;0.00;;;;;;;;4956121;28;10737;-73
2020/12/24 11:36:02;;;;;;;;;0.50;0.00;;;;;;;;4954105;28;10755;-73
2020/12/24 11:38:29;;;;;;;;;0.00;0.00;;;;;;;;4958218;28;11411;-73
2020/12/24 11:40:56;;;;;;;;;0.00;0.00;;;;;;;;4952646;28;10774;-72
2020/12/24 11:43:22;;;;;;;;;0.00;0.00;;;;;;;;4959529;28;10773;-74
2020/12/24 11:45:49;;;;;;;;;1.00;0.00;;;;;;;;4955618;28;10713;-72
2020/12/24 11:48:16;;;;;;;;;0.00;0.00;;;;;;;;4952139;28;10836;-71
2020/12/24 11:50:44;;;;;;;;;0.00;0.00;;;;;;;;4950435;28;10780;-72
2020/12/24 11:53:10;;;;;;;;;0.00;0.00;;;;;;;;4951480;28;10808;-72
2020/12/24 11:55:37;;;;;;;;;0.00;0.00;;;;;;;;4944986;28;10851;-72
2020/12/24 11:58:04;;;;;;;;;1.75;0.00;;;;;;;;4947785;28;10886;-72
2020/12/24 12:00:31;;;;;;;;;2.50;1.00;;;;;;;;4945984;28;10893;-72
2020/12/24 12:02:57;;;;;;;;;1.75;1.00;;;;;;;;4959810;28;11035;-73
2020/12/24 12:05:24;;;;;;;;;6.00;3.75;;;;;;;;4946143;28;11101;-72
2020/12/24 12:07:52;;;;;;;;;4.25;1.00;;;;;;;;4950316;28;11075;-72
2020/12/24 12:10:18;;;;;;;;;0.75;0.00;;;;;;;;4945739;28;10982;-72
2020/12/24 12:12:46;;;;;;;;;0.00;0.00;;;;;;;;4954104;28;10989;-71
2020/12/24 12:15:12;;;;;;;;;0.00;0.00;;;;;;;;4945230;28;10883;-71
2020/12/24 12:17:39;;;;;;;;;0.25;0.25;;;;;;;;4943636;28;10862;-71
2020/12/24 12:20:06;;;;;;;;;1.50;0.00;;;;;;;;4943980;28;11006;-71
2020/12/24 12:22:33;;;;;;;;;2.00;2.00;;;;;;;;4943366;28;11051;-72
2020/12/24 12:25:00;;;;;;;;;1.00;0.00;;;;;;;;4942143;28;11865;-72
2020/12/24 12:27:27;;;;;;;;;0.00;0.00;;;;;;;;4931938;29;10987;-71
2020/12/24 12:29:54;;;;;;;;;0.00;0.00;;;;;;;;4946820;28;11143;-72
2020/12/24 12:32:20;;;;;;;;;1.00;1.00;;;;;;;;4938028;28;11097;-73
2020/12/24 12:34:48;;;;;;;;;0.00;0.00;;;;;;;;4942287;28;11138;-73
2020/12/24 12:37:17;;;;;;;;;1.50;0.00;;;;;;;;4941588;28;11917;-73
2020/12/24 12:39:44;;;;;;;;;0.25;0.25;;;;;;;;4925216;29;10989;-71
2020/12/24 12:42:11;;;;;;;;;0.00;0.00;;;;;;;;4928480;28;11051;-73
2020/12/24 12:44:38;;;;;;;;;0.00;0.00;;;;;;;;4955988;28;10877;-72
2020/12/24 12:47:05;;;;;;;;;1.75;0.00;;;;;;;;4952113;28;10891;-73
2020/12/24 12:49:32;;;;;;;;;0.00;0.00;;;;;;;;4955343;28;10888;-73
2020/12/24 12:52:02;;;;;;;;;14.25;10.00;;;;;;;;4962090;28;10954;-73
2020/12/24 12:54:29;;;;;;;;;9.50;9.50;;;;;;;;4961813;28;12150;-73
2020/12/24 12:56:55;;;;;;;;;2.00;2.00;;;;;;;;4949601;28;11536;-73
2020/12/24 12:59:23;;;;;;;;;6.25;6.25;;;;;;;;4947126;28;10873;-70
2020/12/24 13:01:52;;;;;;;;;3.00;3.00;;;;;;;;4950436;28;10991;-73
2020/12/24 13:04:20;;;;;;;;;1.25;0.00;;;;;;;;4949066;28;11114;-69
2020/12/24 13:06:47;;;;;;;;;0.00;0.00;;;;;;;;4944115;28;10863;-72
2020/12/24 13:09:14;;;;;;;;;1.00;1.00;;;;;;;;4948466;28;10812;-73
2020/12/24 13:11:47;;;;;;;;;9.25;8.50;;;;;;;;4943583;28;10971;-71
2020/12/24 13:14:18;;;;;;;;;0.00;0.00;;;;;;;;4931265;28;12141;-73
2020/12/24 13:16:47;;;;;;;;;5.00;2.00;;;;;;;;4964402;28;10926;-73
2020/12/24 13:19:14;;;;;;;;;0.00;0.00;;;;;;;;4953333;28;11675;-74
2020/12/24 13:21:41;;;;;;;;;1.00;1.00;;;;;;;;4958425;28;10933;-73
2020/12/24 13:24:08;;;;;;;;;3.25;3.25;;;;;;;;4961522;28;11761;-73
2020/12/24 13:26:36;;;;;;;;;11.00;11.00;;;;;;;;4963141;28;11179;-71
2020/12/24 13:29:04;;;;;;;;;15.75;13.75;;;;;;;;4966305;28;11617;-73
2020/12/24 13:31:31;;;;;;;;;4.25;3.50;;;;;;;;4961325;28;11476;-72
2020/12/24 13:33:59;;;;;;;;;10.25;9.00;;;;;;;;4963297;28;11482;-73
2020/12/24 13:36:26;;;;;;;;;3.25;0.00;;;;;;;;4958432;28;11525;-73
2020/12/24 13:38:52;;;;;;;;;3.75;3.75;;;;;;;;4962082;28;10945;-73
2020/12/24 13:41:22;;;;;;;;;10.00;9.50;;;;;;;;4949128;28;11619;-72
2020/12/24 13:43:49;;;;;;;;;5.00;5.00;;;;;;;;4964658;28;11641;-73
2020/12/24 13:46:16;;;;;;;;;5.25;4.75;;;;;;;;4941791;28;11485;-73
2020/12/24 13:48:43;;;;;;;;;3.25;2.25;;;;;;;;4948241;28;11503;-73
2020/12/24 13:51:13;;;;;;;;;0.75;0.75;;;;;;;;4961838;28;11512;-73
2020/12/24 13:53:40;;;;;;;;;5.00;3.25;;;;;;;;4948488;28;11709;-73
2020/12/24 13:56:06;;;;;;;;;0.50;0.50;;;;;;;;4952841;28;11482;-71
2020/12/24 13:58:33;;;;;;;;;4.00;4.00;;;;;;;;4957547;28;11168;-72
2020/12/24 14:01:00;;;;;;;;;18.75;17.25;;;;;;;;4966778;28;11510;-72
2020/12/24 14:03:27;;;;;;;;;4.75;2.00;;;;;;;;4959791;28;11547;-72
2020/12/24 14:05:54;;;;;;;;;4.00;4.00;;;;;;;;4953578;28;11484;-73
2020/12/24 14:08:22;;;;;;;;;4.25;2.50;;;;;;;;4960004;28;11239;-73
2020/12/24 14:10:48;;;;;;;;;0.25;0.25;;;;;;;;4965270;28;11533;-70
2020/12/24 14:13:15;;;;;;;;;2.00;2.00;;;;;;;;4958589;28;11102;-70
2020/12/24 14:15:42;;;;;;;;;4.75;4.00;;;;;;;;4948229;28;11274;-72
2020/12/24 14:18:09;;;;;;;;;1.00;1.00;;;;;;;;4958610;28;11285;-72
2020/12/24 14:20:36;;;;;;;;;0.00;0.00;;;;;;;;4938608;28;11047;-71
2020/12/24 14:23:03;;;;;;;;;1.75;1.75;;;;;;;;4960882;28;10868;-71
2020/12/24 14:25:31;;;;;;;;;1.75;1.75;;;;;;;;4957592;28;11126;-70
2020/12/24 14:27:58;;;;;;;;;2.00;2.00;;;;;;;;4966123;28;11004;-72
2020/12/24 14:30:25;;;;;;;;;5.25;2.75;;;;;;;;4966176;28;10853;-72
2020/12/24 14:32:51;;;;;;;;;1.00;1.00;;;;;;;;4965013;28;11106;-71
2020/12/24 14:35:19;;;;;;;;;3.25;3.25;;;;;;;;4961763;28;11807;-72
2020/12/24 14:37:46;;;;;;;;;5.25;2.50;;;;;;;;4945344;28;12012;-70
2020/12/24 14:40:14;;;;;;;;;9.25;4.50;;;;;;;;4957047;28;11984;-70
2020/12/24 14:42:41;;;;;;;;;2.50;2.25;;;;;;;;4960233;28;11556;-72
2020/12/24 14:45:08;;;;;;;;;6.50;4.00;;;;;;;;4963769;28;11208;-71
2020/12/24 14:47:35;;;;;;;;;10.75;10.50;;;;;;;;4961088;28;11552;-71
2020/12/24 14:50:01;;;;;;;;;1.50;0.50;;;;;;;;4958019;28;11504;-71